Whale Watcher — WCY9576 — position and weather

sailwx.info

Track history (hours):
 
Tides and Currents Weather Stations Pressure Air Temp Water Temp Dewpoint Dewpoint Depression Visibility Wind Speed Wind Dir Waves Ship Positions

Whale Watcher

Owner: J & J FISHING CORPORATION, BARNSTABLE, MA. More information available from US FCC via Universal Licensing System and Coast Guard Vessel Documentation Center.

Last reported at 2017-Oct-28 17:52 UTC. Time now 2017-Dec-12 14:14 UTC.
Position N 42°07' W 070°17'.
Warning: this ship's position is 44 days out of date.

Length 40 m; draft 1.5 m.

Type: Passenger vessel. MMSI: 367397270.

Date/timePositionNaut miles runAvg speedWind from/ knotsBaromVisibWave heightAir tempDewpointWater temp
2017-Oct-28 17:52N 42°07' W 070°17'3 5.6
2017-Oct-28 17:24N 42°09' W 070°19'1 1.2
2017-Oct-28 16:47N 42°09' W 070°18'1 2.4
2017-Oct-28 16:26N 42°08' W 070°18'  
2017-Oct-22 18:36N 41°45' W 070°16'331.4
2017-Oct-22 18:30N 41°48' W 070°17'1531.1
2017-Oct-22 18:01N 42°03' W 070°20'713.2
2017-Oct-22 17:31N 42°10' W 070°21'1 1.5
2017-Oct-22 17:01N 42°10' W 070°20'2 3.6
2017-Oct-22 16:30N 42°09' W 070°18'1021.1
2017-Oct-22 16:01N 41°58' W 070°17'1121.3
2017-Oct-22 15:30N 41°47' W 070°17'5 3.4
2017-Oct-22 14:03N 41°42' W 070°18'0 0.0
2017-Oct-22 14:00N 41°42' W 070°18'0 0.0
2017-Oct-22 13:30N 41°42' W 070°18'28 1.5
2017-Oct-21 18:30N 42°10' W 070°15'4 9.2
2017-Oct-21 18:00N 42°15' W 070°17'0 0.5
2017-Oct-21 17:30N 42°14' W 070°18'4 7.2
2017-Oct-21 17:00N 42°11' W 070°15'1 2.3
2017-Oct-21 16:30N 42°10' W 070°16'510.1
2017-Oct-21 16:00N 42°05' W 070°17'3 0.1
2017-Oct-19 17:44N 42°08' W 070°20'2 5.7
2017-Oct-19 17:28N 42°09' W 070°20'1 1.1
2017-Oct-19 16:58N 42°09' W 070°20'0 0.6
2017-Oct-19 16:30N 42°09' W 070°20'2712.2
2017-Oct-19 14:19N 41°42' W 070°18'0 0.0
2017-Oct-19 14:00N 41°42' W 070°18'0 0.0
2017-Oct-19 13:31N 41°42' W 070°18'  
Track history (hours):
 
Tides and Currents Weather Stations Pressure Air Temp Water Temp Dewpoint Dewpoint Depression Visibility Wind Speed Wind Dir Waves Ship Positions

Whale Watcher

Owner: J & J FISHING CORPORATION, BARNSTABLE, MA. More information available from US FCC via Universal Licensing System and Coast Guard Vessel Documentation Center.

Last reported at 2017-Oct-28 17:52 UTC. Time now 2017-Dec-12 14:14 UTC.
Position N 42°07' W 070°17'.
Warning: this ship's position is 44 days out of date.

Length 40 m; draft 1.5 m.

Type: Passenger vessel. MMSI: 367397270.

Date/timePositionNaut miles runAvg speedWind from/ knotsBaromVisibWave heightAir tempDewpointWater temp
2017-Oct-28 17:52N 42°07' W 070°17'3 5.6
2017-Oct-28 17:24N 42°09' W 070°19'1 1.2
2017-Oct-28 16:47N 42°09' W 070°18'1 2.4
2017-Oct-28 16:26N 42°08' W 070°18'  
2017-Oct-22 18:36N 41°45' W 070°16'331.4
2017-Oct-22 18:30N 41°48' W 070°17'1531.1
2017-Oct-22 18:01N 42°03' W 070°20'713.2
2017-Oct-22 17:31N 42°10' W 070°21'1 1.5
2017-Oct-22 17:01N 42°10' W 070°20'2 3.6
2017-Oct-22 16:30N 42°09' W 070°18'1021.1
2017-Oct-22 16:01N 41°58' W 070°17'1121.3
2017-Oct-22 15:30N 41°47' W 070°17'5 3.4
2017-Oct-22 14:03N 41°42' W 070°18'0 0.0
2017-Oct-22 14:00N 41°42' W 070°18'0 0.0
2017-Oct-22 13:30N 41°42' W 070°18'28 1.5
2017-Oct-21 18:30N 42°10' W 070°15'4 9.2
2017-Oct-21 18:00N 42°15' W 070°17'0 0.5
2017-Oct-21 17:30N 42°14' W 070°18'4 7.2
2017-Oct-21 17:00N 42°11' W 070°15'1 2.3
2017-Oct-21 16:30N 42°10' W 070°16'510.1
2017-Oct-21 16:00N 42°05' W 070°17'3 0.1
2017-Oct-19 17:44N 42°08' W 070°20'2 5.7
2017-Oct-19 17:28N 42°09' W 070°20'1 1.1
2017-Oct-19 16:58N 42°09' W 070°20'0 0.6
2017-Oct-19 16:30N 42°09' W 070°20'2712.2
2017-Oct-19 14:19N 41°42' W 070°18'0 0.0
2017-Oct-19 14:00N 41°42' W 070°18'0 0.0
2017-Oct-19 13:31N 41°42' W 070°18'  

Dump ship's entire track history